Time;durP1;ratioP1;P1;durP2;ratioP2;P2;SDS_P1;SDS_P2;PMS_P1;PMS_P2;Temp;Humidity;BMP_temperature;BMP_pressure;BME280_temperature;BME280_humidity;BME280_pressure;Samples;Min_cycle;Max_cycle;Signal;HPM_P1;HPM_P2
2022/06/07 00:00:06;;;;;;;923.97;850.67;;;10.80;99.90;;;;;;5052799;28;20479;-80
2022/06/07 00:02:35;;;;;;;931.73;856.47;;;10.70;99.90;;;;;;5053462;28;20471;-80
2022/06/07 00:05:03;;;;;;;937.23;861.07;;;10.70;99.90;;;;;;5053942;28;20836;-80
2022/06/07 00:07:30;;;;;;;922.33;846.23;;;10.70;99.90;;;;;;5053350;28;20447;-80
2022/06/07 00:09:57;;;;;;;917.40;840.97;;;10.70;99.90;;;;;;5052904;28;20644;-80
2022/06/07 00:12:25;;;;;;;924.67;847.67;;;10.80;99.90;;;;;;5053187;28;20482;-80
2022/06/07 00:14:51;;;;;;;929.07;851.83;;;10.70;99.90;;;;;;5053812;28;20458;-80
2022/06/07 00:17:19;;;;;;;922.77;849.07;;;10.80;99.90;;;;;;5053893;28;20455;-78
2022/06/07 00:19:47;;;;;;;926.53;849.43;;;10.80;99.90;;;;;;5052740;28;20455;-79
2022/06/07 00:22:14;;;;;;;915.23;838.93;;;11.00;99.90;;;;;;5052993;28;20474;-79
2022/06/07 00:24:40;;;;;;;894.33;824.53;;;11.20;99.90;;;;;;5052925;28;20459;-80
2022/06/07 00:27:07;;;;;;;884.10;814.43;;;11.50;99.90;;;;;;5052833;28;20482;-80
2022/06/07 00:29:35;;;;;;;856.53;793.73;;;11.60;99.90;;;;;;5052203;28;20466;-80
2022/06/07 00:32:04;;;;;;;852.37;793.23;;;11.90;99.90;;;;;;5052585;28;20490;-79
2022/06/07 00:34:30;;;;;;;844.00;789.27;;;11.80;99.90;;;;;;5052880;28;20457;-80
2022/06/07 00:37:00;;;;;;;816.57;767.47;;;11.90;99.90;;;;;;5052741;28;20458;-79
2022/06/07 00:39:26;;;;;;;807.60;758.50;;;12.10;99.90;;;;;;5052409;28;20833;-80
2022/06/07 00:41:53;;;;;;;785.40;739.83;;;12.10;99.90;;;;;;5052822;28;20476;-80
2022/06/07 00:44:35;;;;;;;761.60;718.93;;;12.00;99.90;;;;;;5053157;28;20455;-82
2022/06/07 00:47:06;;;;;;;736.27;697.93;;;12.00;99.90;;;;;;5052811;28;20459;-82
2022/06/07 00:49:37;;;;;;;734.67;696.67;;;12.00;99.90;;;;;;5052119;28;20972;-80
2022/06/07 00:52:05;;;;;;;723.77;687.47;;;11.90;99.90;;;;;;5052356;28;20570;-79
2022/06/07 00:54:34;;;;;;;736.77;699.10;;;11.90;99.90;;;;;;5052082;28;20459;-80
2022/06/07 00:57:01;;;;;;;739.20;702.70;;;11.90;99.90;;;;;;5052828;28;20459;-80
2022/06/07 00:59:28;;;;;;;743.03;705.50;;;11.70;99.90;;;;;;5052186;28;20843;-80
2022/06/07 01:01:55;;;;;;;728.73;692.43;;;11.80;99.90;;;;;;5052894;28;20839;-79
2022/06/07 01:04:23;;;;;;;685.87;653.60;;;11.80;99.90;;;;;;5052836;28;20467;-80
2022/06/07 01:12:20;;;;;;;657.13;628.03;;;11.70;99.90;;;;;;5054721;28;21041;-80
2022/06/07 01:14:46;;;;;;;625.93;599.53;;;11.80;99.90;;;;;;5056800;28;20801;-80
2022/06/07 01:17:13;;;;;;;636.70;609.77;;;11.80;99.90;;;;;;5056843;28;20462;-80
2022/06/07 01:19:40;;;;;;;602.97;578.30;;;11.80;99.90;;;;;;5055858;28;20454;-80
2022/06/07 01:22:08;;;;;;;608.23;583.73;;;11.80;99.90;;;;;;5056387;28;20996;-80
2022/06/07 01:24:35;;;;;;;566.00;543.63;;;11.80;99.90;;;;;;5056529;28;20822;-79
2022/06/07 01:27:03;;;;;;;504.50;485.40;;;11.80;99.90;;;;;;5056551;28;20501;-81
2022/06/07 01:29:30;;;;;;;458.47;441.77;;;11.70;99.90;;;;;;5055899;28;20458;-80
2022/06/07 01:31:57;;;;;;;440.67;425.07;;;11.70;99.90;;;;;;5056461;28;20483;-80
2022/06/07 01:34:24;;;;;;;444.53;428.30;;;11.70;99.90;;;;;;5056231;28;20451;-80
2022/06/07 01:36:50;;;;;;;423.13;408.47;;;11.70;99.90;;;;;;5056092;28;20853;-80
2022/06/07 01:42:03;;;;;;;346.90;335.37;;;11.60;99.90;;;;;;5056351;28;20581;-80
2022/06/07 01:44:36;;;;;;;370.93;358.67;;;11.70;99.90;;;;;;5056076;28;20456;-80
2022/06/07 01:47:03;;;;;;;358.43;346.77;;;11.70;99.90;;;;;;5056631;28;20824;-80
2022/06/07 01:49:30;;;;;;;369.87;357.13;;;11.80;99.90;;;;;;5055134;28;20455;-80
2022/06/07 01:52:04;;;;;;;363.93;351.77;;;11.70;99.90;;;;;;5056877;28;20487;-77
2022/06/07 01:54:32;;;;;;;357.37;344.67;;;11.60;99.90;;;;;;5054863;28;20461;-80
2022/06/07 01:56:59;;;;;;;362.30;350.30;;;11.70;99.90;;;;;;5056342;28;20839;-79
2022/06/07 01:59:25;;;;;;;403.43;389.53;;;11.50;99.90;;;;;;5055152;28;20478;-79
2022/06/07 02:01:53;;;;;;;366.07;353.77;;;11.40;99.90;;;;;;5055792;28;20478;-80
2022/06/07 02:04:21;;;;;;;363.57;351.67;;;11.50;99.90;;;;;;5056433;28;20837;-80
2022/06/07 02:06:48;;;;;;;366.93;354.73;;;11.60;99.90;;;;;;5056827;28;20459;-80
2022/06/07 02:09:17;;;;;;;312.93;302.43;;;11.60;99.90;;;;;;5055778;28;20450;-80
2022/06/07 02:11:45;;;;;;;272.03;262.97;;;11.60;99.90;;;;;;5056412;28;20857;-80
2022/06/07 02:14:13;;;;;;;240.23;232.70;;;11.70;99.90;;;;;;5057023;28;20462;-80
2022/06/07 02:16:40;;;;;;;227.80;220.33;;;11.80;99.90;;;;;;5056245;28;20818;-80
2022/06/07 02:19:08;;;;;;;173.37;167.50;;;11.70;99.90;;;;;;5056005;28;20834;-80
2022/06/07 02:21:36;;;;;;;162.83;157.63;;;11.60;99.90;;;;;;5056056;28;20447;-80
2022/06/07 02:24:05;;;;;;;218.27;211.47;;;11.50;99.90;;;;;;5055104;28;20462;-81
2022/06/07 02:26:38;;;;;;;226.63;219.47;;;11.60;99.90;;;;;;5056240;28;20451;-80
2022/06/07 02:29:09;;;;;;;252.50;244.37;;;11.60;99.90;;;;;;5055268;28;20955;-80
2022/06/07 02:31:38;;;;;;;270.87;262.20;;;11.60;99.90;;;;;;5055984;28;20529;-80
2022/06/07 02:34:06;;;;;;;302.40;292.43;;;11.40;99.90;;;;;;5055562;28;20462;-80
2022/06/07 02:36:34;;;;;;;330.57;319.87;;;11.40;99.90;;;;;;5055917;28;20491;-79
2022/06/07 02:39:01;;;;;;;357.30;345.20;;;11.40;99.90;;;;;;5055052;28;20453;-80
2022/06/07 02:41:30;;;;;;;368.17;355.70;;;11.20;99.90;;;;;;5055475;28;20598;-80
2022/06/07 02:43:56;;;;;;;409.50;395.23;;;11.30;99.90;;;;;;5055114;28;20447;-79
2022/06/07 02:46:25;;;;;;;445.40;429.60;;;11.30;99.90;;;;;;5055151;28;20465;-80
2022/06/07 02:48:51;;;;;;;472.97;455.77;;;11.10;99.90;;;;;;5054503;28;20558;-79
2022/06/07 02:51:18;;;;;;;495.57;477.17;;;11.00;99.90;;;;;;5055010;28;20482;-80
2022/06/07 02:53:45;;;;;;;473.87;456.53;;;11.10;99.90;;;;;;5054150;28;20479;-79
2022/06/07 02:56:12;;;;;;;418.87;404.10;;;11.10;99.90;;;;;;5054854;28;20811;-80
2022/06/07 02:58:38;;;;;;;367.10;354.37;;;11.20;99.90;;;;;;5054153;28;20451;-80
2022/06/07 03:01:05;;;;;;;306.20;296.33;;;11.30;99.90;;;;;;5055339;28;20458;-80
2022/06/07 03:03:33;;;;;;;303.67;293.33;;;11.30;99.90;;;;;;5054754;28;20479;-80
2022/06/07 03:06:00;;;;;;;286.50;276.97;;;11.20;99.90;;;;;;5055173;28;20456;-80
2022/06/07 03:08:30;;;;;;;279.43;270.13;;;11.30;99.90;;;;;;5053867;28;20455;-80
2022/06/07 03:10:57;;;;;;;259.90;251.53;;;11.30;99.90;;;;;;5054806;28;20483;-80
2022/06/07 03:13:24;;;;;;;331.57;320.60;;;11.30;99.90;;;;;;5054753;28;20475;-80
2022/06/07 03:15:52;;;;;;;329.37;318.50;;;11.00;99.90;;;;;;5054814;28;20452;-80
2022/06/07 03:18:19;;;;;;;327.67;316.53;;;11.10;99.90;;;;;;5054448;28;21053;-80
2022/06/07 03:20:48;;;;;;;294.17;284.60;;;11.20;99.90;;;;;;5055304;28;20456;-81
2022/06/07 03:23:15;;;;;;;281.70;272.70;;;11.20;99.90;;;;;;5055255;28;20476;-80
2022/06/07 03:25:42;;;;;;;273.53;264.73;;;11.10;99.90;;;;;;5054681;28;20462;-80
2022/06/07 03:28:09;;;;;;;231.43;224.13;;;11.20;99.90;;;;;;5053910;28;20459;-81
2022/06/07 03:30:36;;;;;;;258.40;249.93;;;11.20;99.90;;;;;;5054290;28;20459;-80
2022/06/07 03:33:04;;;;;;;249.07;241.07;;;11.20;99.90;;;;;;5054004;28;20479;-80
2022/06/07 03:35:30;;;;;;;226.67;219.37;;;11.20;99.90;;;;;;5053835;28;20451;-80
2022/06/07 03:37:58;;;;;;;185.37;179.03;;;11.30;99.90;;;;;;5054047;28;20459;-81
2022/06/07 03:43:12;;;;;;;125.10;120.80;;;11.40;99.90;;;;;;5048516;28;20925;-80
2022/06/07 03:45:40;;;;;;;107.03;103.33;;;11.40;99.90;;;;;;5054017;28;21110;-82
2022/06/07 03:48:08;;;;;;;95.47;91.93;;;11.40;99.90;;;;;;5053790;28;20455;-83
2022/06/07 03:50:36;;;;;;;81.10;78.23;;;11.50;99.90;;;;;;5054185;28;20542;-80
2022/06/07 03:53:04;;;;;;;86.80;83.77;;;11.40;99.90;;;;;;5054159;28;20502;-80
2022/06/07 03:55:31;;;;;;;77.73;74.40;;;11.50;99.90;;;;;;5053319;28;20835;-80
2022/06/07 03:57:58;;;;;;;88.17;85.03;;;11.40;99.90;;;;;;5054338;28;20936;-80
2022/06/07 04:00:25;;;;;;;104.87;101.17;;;11.40;99.90;;;;;;5053408;28;20456;-80
2022/06/07 04:02:51;;;;;;;117.47;113.50;;;11.40;99.90;;;;;;5053957;28;20475;-80
2022/06/07 04:05:18;;;;;;;121.33;117.27;;;11.30;99.90;;;;;;5053643;28;20586;-80
2022/06/07 04:10:31;;;;;;;151.40;146.40;;;11.30;99.90;;;;;;5052892;28;20501;-80
2022/06/07 04:12:57;;;;;;;170.07;164.37;;;11.20;99.90;;;;;;5053243;28;20479;-80
2022/06/07 04:15:24;;;;;;;196.57;190.30;;;11.10;99.90;;;;;;5053812;28;20451;-80
2022/06/07 04:17:53;;;;;;;188.23;181.73;;;11.10;99.90;;;;;;5053553;28;20486;-80
2022/06/07 04:20:20;;;;;;;199.60;193.30;;;11.00;99.90;;;;;;5052587;28;20497;-80
2022/06/07 04:22:47;;;;;;;203.03;196.13;;;11.10;99.90;;;;;;5053171;28;20987;-80
2022/06/07 04:25:14;;;;;;;224.57;216.77;;;11.10;99.90;;;;;;5052988;28;20451;-81
2022/06/07 04:27:42;;;;;;;232.90;225.30;;;11.20;99.90;;;;;;5053329;28;20462;-80
2022/06/07 04:30:10;;;;;;;230.00;222.33;;;11.20;99.90;;;;;;5052688;28;20451;-80
2022/06/07 04:32:39;;;;;;;216.23;209.03;;;11.30;99.90;;;;;;5053150;28;20483;-80
2022/06/07 04:35:07;;;;;;;149.40;144.30;;;11.50;99.90;;;;;;5053052;28;20841;-80
2022/06/07 04:37:34;;;;;;;129.83;125.43;;;11.70;99.90;;;;;;5052903;28;20989;-80
2022/06/07 04:40:01;;;;;;;68.60;65.80;;;11.90;99.90;;;;;;5053122;28;20462;-80
2022/06/07 04:42:28;;;;;;;81.73;78.70;;;12.10;99.90;;;;;;5053145;28;20579;-80
2022/06/07 04:44:56;;;;;;;77.33;73.50;;;12.50;99.90;;;;;;5052702;28;20455;-80
2022/06/07 04:47:23;;;;;;;55.20;52.90;;;12.50;99.90;;;;;;5052180;28;20546;-80
2022/06/07 04:49:50;;;;;;;36.60;34.90;;;12.60;99.90;;;;;;5052871;28;20550;-80
2022/06/07 04:52:16;;;;;;;25.90;24.70;;;12.80;99.90;;;;;;5053688;28;20932;-80
2022/06/07 04:54:43;;;;;;;17.30;16.40;;;12.90;99.90;;;;;;5052357;28;20459;-79
2022/06/07 04:57:10;;;;;;;16.57;15.57;;;13.00;99.90;;;;;;5053502;28;20966;-79
2022/06/07 04:59:37;;;;;;;10.00;9.30;;;13.20;99.90;;;;;;5052445;28;20451;-80
2022/06/07 05:02:05;;;;;;;9.40;8.70;;;13.30;99.90;;;;;;5052820;28;20905;-79
2022/06/07 05:04:32;;;;;;;7.07;6.40;;;13.50;99.90;;;;;;5053242;28;20795;-80
2022/06/07 05:06:59;;;;;;;7.30;5.93;;;13.50;99.90;;;;;;5053001;28;20451;-80
2022/06/07 05:09:27;;;;;;;5.50;4.80;;;13.50;99.90;;;;;;5052373;28;20459;-80
2022/06/07 05:11:54;;;;;;;7.20;4.83;;;13.60;99.90;;;;;;5052940;28;20470;-80
2022/06/07 05:14:23;;;;;;;8.20;5.20;;;13.50;99.90;;;;;;5053229;28;20452;-79
2022/06/07 05:16:50;;;;;;;5.33;3.70;;;13.50;99.90;;;;;;5052540;28;20816;-79
2022/06/07 05:19:20;;;;;;;4.93;3.80;;;13.60;99.90;;;;;;5052004;28;20455;-80
2022/06/07 05:21:47;;;;;;;6.17;3.37;;;13.70;99.90;;;;;;5052751;28;20499;-82
2022/06/07 05:24:15;;;;;;;4.73;3.40;;;13.70;99.90;;;;;;5053310;28;20497;-80
2022/06/07 05:26:46;;;;;;;5.57;3.27;;;13.70;99.90;;;;;;5052709;28;20451;-80
2022/06/07 05:29:18;;;;;;;5.50;2.90;;;13.60;99.90;;;;;;5051986;28;20469;-80
2022/06/07 05:31:44;;;;;;;7.90;3.03;;;13.70;99.90;;;;;;5052660;28;20483;-80
2022/06/07 05:34:11;;;;;;;4.33;2.83;;;13.90;99.90;;;;;;5052485;28;20466;-82
2022/06/07 05:36:39;;;;;;;7.97;3.10;;;13.90;99.90;;;;;;5052287;28;20455;-80
2022/06/07 05:39:07;;;;;;;4.90;2.40;;;14.30;99.90;;;;;;5051667;28;20455;-79
2022/06/07 05:41:34;;;;;;;7.57;3.00;;;14.90;97.20;;;;;;5052152;28;20459;-81
2022/06/07 05:44:01;;;;;;;6.30;1.97;;;15.60;94.00;;;;;;5052889;28;20456;-80
2022/06/07 05:46:28;;;;;;;3.80;1.60;;;16.10;86.80;;;;;;5052758;28;20454;-82
2022/06/07 05:48:55;;;;;;;6.73;1.90;;;16.10;85.30;;;;;;5051929;28;20456;-80
2022/06/07 05:51:21;;;;;;;4.50;1.57;;;16.10;84.20;;;;;;5052565;28;20974;-80
2022/06/07 05:53:53;;;;;;;7.23;2.27;;;16.10;82.50;;;;;;5051574;28;20455;-82
2022/06/07 05:56:20;;;;;;;4.30;1.70;;;16.50;82.90;;;;;;5052494;28;20458;-80
2022/06/07 05:58:48;;;;;;;6.93;1.97;;;16.90;80.90;;;;;;5055114;28;20463;-80
2022/06/07 06:01:14;;;;;;;6.77;2.40;;;17.40;75.00;;;;;;5063413;28;20462;-83
2022/06/07 06:03:41;;;;;;;5.30;1.53;;;17.90;69.80;;;;;;5062562;28;20470;-83
2022/06/07 06:06:08;;;;;;;6.93;1.90;;;18.30;66.90;;;;;;5060762;28;20491;-81
2022/06/07 06:11:23;;;;;;;5.63;1.50;;;19.10;60.50;;;;;;5056399;28;20427;-82
2022/06/07 06:13:50;;;;;;;8.93;1.87;;;19.60;58.30;;;;;;5060888;28;20442;-81
2022/06/07 06:16:20;;;;;;;5.60;1.70;;;19.90;55.60;;;;;;5061240;28;20529;-81
2022/06/07 06:18:47;;;;;;;3.77;1.03;;;20.20;55.00;;;;;;5061420;28;20959;-81
2022/06/07 06:21:22;;;;;;;5.60;1.37;;;20.40;46.70;;;;;;5065380;28;20483;-82
2022/06/07 06:23:49;;;;;;;4.50;1.70;;;20.90;47.20;;;;;;5059781;28;20853;-81
2022/06/07 06:26:18;;;;;;;4.87;1.57;;;21.20;43.00;;;;;;5060745;28;20458;-83
2022/06/07 06:28:48;;;;;;;6.83;1.30;;;21.60;40.80;;;;;;5058299;28;20464;-81
2022/06/07 06:31:16;;;;;;;5.17;1.40;;;22.10;33.80;;;;;;5058758;28;20526;-81
2022/06/07 06:33:45;;;;;;;6.10;1.37;;;22.30;36.70;;;;;;5056822;28;20486;-81
2022/06/07 06:36:14;;;;;;;5.77;1.50;;;21.90;31.50;;;;;;5057021;28;20523;-82
2022/06/07 06:38:43;;;;;;;8.77;1.57;;;22.30;33.20;;;;;;5057851;28;20485;-82
2022/06/07 06:41:11;;;;;;;4.30;1.40;;;22.10;30.80;;;;;;5058962;28;20469;-81
2022/06/07 06:43:38;;;;;;;5.30;1.43;;;21.90;31.60;;;;;;5058651;28;20484;-82
2022/06/07 06:46:07;;;;;;;6.43;1.00;;;21.80;30.80;;;;;;5058340;28;20457;-81
2022/06/07 06:48:33;;;;;;;11.70;1.30;;;21.50;29.30;;;;;;5058717;28;20454;-81
2022/06/07 06:51:01;;;;;;;4.10;1.30;;;21.10;27.10;;;;;;5059155;28;20456;-81
2022/06/07 06:53:28;;;;;;;5.50;1.53;;;20.60;28.30;;;;;;5059687;28;20485;-81
2022/06/07 06:55:56;;;;;;;3.83;1.20;;;20.50;31.40;;;;;;5055496;28;20458;-80
2022/06/07 06:58:24;;;;;;;6.97;1.67;;;20.00;31.00;;;;;;5058325;28;20458;-82
2022/06/07 07:01:00;;;;;;;4.50;1.40;;;19.80;32.10;;;;;;5059615;28;20567;-81
2022/06/07 07:03:28;;;;;;;5.70;1.13;;;19.70;35.00;;;;;;5058931;28;20474;-82
2022/06/07 07:05:56;;;;;;;4.90;1.20;;;19.70;35.00;;;;;;5058349;28;20451;-81
2022/06/07 07:08:23;;;;;;;7.33;1.43;;;19.50;34.80;;;;;;5056975;28;20454;-82
2022/06/07 07:10:50;;;;;;;5.30;1.60;;;19.50;34.80;;;;;;5057328;28;20508;-81
2022/06/07 07:13:18;;;;;;;4.20;1.20;;;20.10;36.50;;;;;;5058705;28;20487;-82
2022/06/07 07:15:47;;;;;;;3.87;1.27;;;20.60;33.80;;;;;;5057563;28;20463;-82
2022/06/07 07:18:14;;;;;;;7.43;1.40;;;20.90;31.00;;;;;;5058347;28;20864;-81
2022/06/07 07:20:42;;;;;;;6.50;1.40;;;20.70;27.60;;;;;;5061610;28;20462;-83
2022/06/07 07:23:38;;;;;;;4.97;1.63;;;20.70;29.80;;;;;;5063635;28;20478;-82
2022/06/07 07:26:13;;;;;;;5.07;1.40;;;20.00;29.90;;;;;;5054754;28;20457;-86
2022/06/07 07:28:41;;;;;;;4.57;1.23;;;19.90;32.30;;;;;;5064193;28;20489;-83
2022/06/07 07:31:13;;;;;;;5.53;1.20;;;19.90;32.60;;;;;;5065902;28;20972;-84
2022/06/07 07:33:40;;;;;;;4.10;1.30;;;19.90;30.70;;;;;;5056885;28;20482;-81
2022/06/07 07:36:09;;;;;;;8.27;1.70;;;19.80;30.30;;;;;;5056227;28;20490;-82
2022/06/07 07:38:36;;;;;;;4.10;1.20;;;19.80;30.50;;;;;;5056928;28;20195;-83
2022/06/07 07:41:04;;;;;;;4.37;1.20;;;19.80;29.40;;;;;;5056754;28;20455;-82
2022/06/07 07:43:31;;;;;;;4.93;1.30;;;19.60;29.10;;;;;;5057566;28;20474;-82
2022/06/07 07:45:58;;;;;;;4.43;1.43;;;19.30;27.90;;;;;;5056363;28;20837;-82
2022/06/07 07:48:25;;;;;;;7.30;1.60;;;19.30;29.30;;;;;;5057103;28;20467;-84
2022/06/07 07:50:52;;;;;;;7.63;1.87;;;19.30;30.50;;;;;;5057505;28;20951;-82
2022/06/07 07:53:20;;;;;;;7.13;1.60;;;19.40;29.60;;;;;;5058253;28;20853;-83
2022/06/07 07:55:49;;;;;;;4.43;1.50;;;19.50;30.10;;;;;;5056640;28;20454;-85
2022/06/07 07:58:17;;;;;;;8.53;1.80;;;19.90;31.90;;;;;;5056426;28;20448;-81
2022/06/07 08:00:45;;;;;;;6.23;1.67;;;20.30;31.20;;;;;;5057544;28;20459;-82
2022/06/07 08:03:12;;;;;;;6.37;1.47;;;21.10;29.10;;;;;;5058040;28;20864;-83
2022/06/07 08:05:39;;;;;;;4.90;1.47;;;21.80;26.00;;;;;;5058904;28;20465;-82
2022/06/07 08:08:07;;;;;;;6.37;1.30;;;22.10;24.60;;;;;;5059152;28;20460;-83
2022/06/07 08:10:35;;;;;;;4.30;1.10;;;21.90;21.40;;;;;;5058790;28;20460;-82
2022/06/07 08:13:03;;;;;;;4.80;1.30;;;21.50;20.50;;;;;;5059426;28;20472;-84
2022/06/07 08:15:33;;;;;;;4.80;1.23;;;21.40;21.80;;;;;;5057850;28;20448;-82
2022/06/07 08:18:02;;;;;;;4.63;1.20;;;21.00;21.10;;;;;;5058930;28;20452;-85
2022/06/07 08:20:30;;;;;;;4.00;1.30;;;21.00;21.50;;;;;;5057348;28;20828;-82
2022/06/07 08:22:57;;;;;;;5.47;1.47;;;20.80;21.30;;;;;;5057242;28;20576;-82
2022/06/07 08:25:24;;;;;;;4.83;1.40;;;20.90;22.80;;;;;;5058503;28;20761;-82
2022/06/07 08:27:52;;;;;;;5.07;1.20;;;21.10;25.50;;;;;;5058552;28;20452;-83
2022/06/07 08:30:20;;;;;;;4.73;1.40;;;21.40;24.50;;;;;;5056834;28;20463;-83
2022/06/07 08:32:47;;;;;;;4.00;1.30;;;21.90;22.50;;;;;;5057773;28;20478;-84
2022/06/07 08:37:57;;;;;;;4.80;1.23;;;21.40;20.70;;;;;;5013126;28;20446;-82
2022/06/07 08:40:33;;;;;;;4.87;1.53;;;21.30;23.00;;;;;;5057104;28;20485;-82
2022/06/07 08:43:06;;;;;;;5.50;1.50;;;21.30;20.60;;;;;;5057432;28;20475;-82
2022/06/07 08:45:36;;;;;;;4.93;1.10;;;21.80;23.20;;;;;;5056415;28;20462;-82
2022/06/07 08:48:04;;;;;;;4.00;1.33;;;21.80;21.00;;;;;;5057660;28;20455;-82
2022/06/07 08:50:35;;;;;;;4.00;1.30;;;21.80;19.80;;;;;;5057094;28;20834;-82
2022/06/07 08:53:11;;;;;;;5.70;1.20;;;21.70;20.90;;;;;;5057632;28;20575;-82
2022/06/07 08:55:43;;;;;;;4.83;1.07;;;21.80;21.00;;;;;;5058899;28;20891;-82
2022/06/07 08:58:18;;;;;;;4.00;1.00;;;21.80;19.80;;;;;;5057153;28;20482;-81
2022/06/07 09:00:48;;;;;;;4.77;1.20;;;21.90;21.10;;;;;;5058611;28;20458;-84
2022/06/07 09:03:41;;;;;;;4.07;1.03;;;22.80;22.80;;;;;;5057171;28;20548;-84
2022/06/07 09:06:18;;;;;;;4.80;1.13;;;22.40;20.00;;;;;;5054358;28;20981;-80
2022/06/07 09:08:48;;;;;;;4.43;1.00;;;22.40;22.60;;;;;;5057741;28;20453;-82
2022/06/07 09:14:14;;;;;;;5.07;1.30;;;22.70;21.70;;;;;;5053807;28;20435;-84
2022/06/07 09:16:44;;;;;;;8.53;1.00;;;22.80;20.30;;;;;;5055597;28;20457;-82
2022/06/07 09:19:13;;;;;;;5.60;1.23;;;23.10;20.80;;;;;;5054983;28;20514;-81
2022/06/07 09:21:44;;;;;;;3.97;1.10;;;23.40;18.40;;;;;;5056846;28;20459;-83
2022/06/07 09:24:14;;;;;;;5.03;1.37;;;24.10;17.90;;;;;;5057104;28;20470;-83
2022/06/07 09:26:42;;;;;;;6.87;1.13;;;23.90;15.80;;;;;;5056126;28;20951;-82
2022/06/07 09:29:16;;;;;;;5.77;1.07;;;23.50;17.40;;;;;;5056189;28;20488;-82
2022/06/07 09:31:44;;;;;;;5.33;1.27;;;23.60;17.00;;;;;;5055763;28;20447;-81
2022/06/07 09:34:19;;;;;;;4.23;1.10;;;23.50;16.60;;;;;;5057962;28;20478;-82
2022/06/07 09:36:52;;;;;;;5.27;1.10;;;23.60;16.20;;;;;;5059814;28;20465;-83
2022/06/07 09:39:25;;;;;;;5.07;1.23;;;24.00;15.10;;;;;;5059775;28;20450;-82
2022/06/07 09:41:57;;;;;;;5.10;1.30;;;24.00;15.20;;;;;;5060347;28;20493;-82
2022/06/07 09:44:29;;;;;;;9.67;1.27;;;24.80;17.20;;;;;;5061219;28;20475;-83
2022/06/07 09:46:59;;;;;;;3.97;1.13;;;26.20;16.40;;;;;;5059747;28;20459;-83
2022/06/07 09:49:29;;;;;;;6.10;1.57;;;26.20;8.80;;;;;;5061278;28;20966;-83
2022/06/07 09:52:11;;;;;;;5.90;1.20;;;25.90;10.80;;;;;;5062543;28;20490;-82
2022/06/07 09:54:43;;;;;;;6.30;1.37;;;25.40;11.10;;;;;;5063482;28;20861;-83
2022/06/07 09:57:22;;;;;;;5.13;1.10;;;25.40;12.10;;;;;;5062596;28;20447;-82
2022/06/07 10:00:17;;;;;;;4.10;1.20;;;25.80;11.00;;;;;;5061478;28;20490;-82
2022/06/07 10:03:05;;;;;;;6.53;1.43;;;25.90;12.00;;;;;;5061967;28;20512;-82
2022/06/07 10:05:36;;;;;;;4.10;1.20;;;25.60;8.50;;;;;;5061758;28;20454;-83
2022/06/07 10:08:09;;;;;;;5.30;1.53;;;25.90;11.90;;;;;;5061955;28;20459;-84
2022/06/07 10:10:44;;;;;;;4.40;1.30;;;25.20;12.60;;;;;;5062072;28;20461;-82
2022/06/07 10:13:24;;;;;;;4.57;1.17;;;25.30;13.60;;;;;;5061764;28;20502;-85
2022/06/07 10:16:02;;;;;;;8.77;1.33;;;25.40;12.90;;;;;;5061738;28;20657;-83
2022/06/07 10:18:46;;;;;;;4.40;1.30;;;24.80;12.30;;;;;;5059990;28;20446;-83
2022/06/07 10:21:27;;;;;;;4.10;1.20;;;24.40;13.60;;;;;;5061565;28;20473;-85
2022/06/07 10:24:12;;;;;;;6.77;1.20;;;24.90;13.90;;;;;;5061714;28;20565;-83
2022/06/07 10:26:51;;;;;;;4.90;1.40;;;25.40;12.20;;;;;;5060595;28;20454;-82
2022/06/07 10:29:33;;;;;;;5.30;1.23;;;25.40;10.50;;;;;;5061668;28;20486;-84
2022/06/07 10:32:06;;;;;;;6.10;1.50;;;25.40;12.80;;;;;;5061851;28;20478;-83
2022/06/07 10:34:39;;;;;;;4.90;1.20;;;25.40;12.10;;;;;;5061430;28;20451;-82
2022/06/07 10:37:18;;;;;;;4.90;1.60;;;25.10;10.30;;;;;;5061721;28;20435;-82
2022/06/07 10:40:04;;;;;;;4.37;1.10;;;25.60;10.80;;;;;;5060585;28;20451;-84
2022/06/07 10:42:40;;;;;;;5.70;1.30;;;25.60;10.50;;;;;;5061020;28;20475;-83
2022/06/07 10:45:15;;;;;;;4.70;1.50;;;25.50;10.20;;;;;;5058061;28;20474;-84
2022/06/07 10:47:52;;;;;;;4.83;1.67;;;26.10;8.80;;;;;;5061011;28;20455;-82
2022/06/07 10:50:24;;;;;;;4.57;1.60;;;26.10;9.50;;;;;;5059823;28;20490;-82
2022/06/07 10:53:00;;;;;;;5.13;1.53;;;26.30;9.50;;;;;;5060757;28;20482;-83
2022/06/07 10:55:34;;;;;;;5.03;1.60;;;26.50;8.40;;;;;;5061923;28;20525;-81
2022/06/07 10:58:24;;;;;;;5.40;1.50;;;27.00;6.80;;;;;;5060917;28;20435;-84
2022/06/07 11:01:04;;;;;;;4.43;1.30;;;26.40;7.60;;;;;;5059880;28;20450;-85
2022/06/07 11:03:50;;;;;;;4.37;1.20;;;26.30;8.80;;;;;;5058260;28;20486;-83
2022/06/07 11:09:26;;;;;;;7.53;1.57;;;26.30;8.80;;;;;;5059223;28;20503;-83
2022/06/07 11:11:58;;;;;;;4.30;1.30;;;26.00;10.50;;;;;;5061136;28;20577;-83
2022/06/07 11:14:44;;;;;;;6.27;1.43;;;26.30;6.70;;;;;;5060171;28;20499;-83
2022/06/07 11:17:25;;;;;;;5.50;1.43;;;26.70;6.70;;;;;;5058910;28;20944;-83
2022/06/07 11:20:00;;;;;;;7.27;1.73;;;26.20;6.10;;;;;;5059471;28;20816;-83
2022/06/07 11:22:34;;;;;;;4.93;1.63;;;25.50;9.60;;;;;;5057972;28;20509;-83
2022/06/07 11:25:19;;;;;;;6.20;1.70;;;25.40;9.80;;;;;;5060008;28;21092;-83
2022/06/07 11:27:53;;;;;;;5.30;1.50;;;24.90;13.60;;;;;;5060435;28;20542;-83
2022/06/07 11:30:45;;;;;;;4.60;1.47;;;24.40;13.50;;;;;;5060603;28;20451;-82
2022/06/07 11:33:38;;;;;;;7.53;1.57;;;23.80;16.40;;;;;;5061249;28;20505;-82
2022/06/07 11:36:27;;;;;;;9.27;2.40;;;23.30;17.50;;;;;;5062121;28;20569;-83
2022/06/07 11:39:01;;;;;;;7.90;1.70;;;22.90;18.20;;;;;;5060060;28;20521;-83
2022/06/07 11:41:51;;;;;;;6.00;2.00;;;22.50;19.90;;;;;;5061086;28;20922;-85
2022/06/07 11:44:35;;;;;;;5.70;1.90;;;22.40;20.50;;;;;;5060549;28;20489;-83
2022/06/07 11:47:19;;;;;;;6.13;1.80;;;22.40;21.40;;;;;;5061951;28;20500;-85
2022/06/07 11:50:01;;;;;;;12.53;2.40;;;22.60;21.60;;;;;;5043197;28;20846;-82
2022/06/07 11:52:32;;;;;;;6.53;2.00;;;22.70;21.60;;;;;;5061412;28;20489;-83
2022/06/07 11:55:08;;;;;;;5.70;1.90;;;22.60;23.10;;;;;;5060943;28;20818;-82
2022/06/07 11:57:38;;;;;;;6.57;1.70;;;21.60;26.30;;;;;;5057522;28;20453;-81
2022/06/07 12:00:39;;;;;;;5.63;2.10;;;21.50;31.10;;;;;;5056073;28;20452;-81
2022/06/07 12:03:42;;;;;;;7.83;1.80;;;21.30;40.60;;;;;;5057139;28;20467;-81
2022/06/07 12:06:26;;;;;;;4.47;1.67;;;21.30;46.00;;;;;;5056765;28;20538;-81
2022/06/07 12:09:04;;;;;;;4.20;1.60;;;22.00;47.10;;;;;;5054687;28;20977;-83
2022/06/07 12:11:34;;;;;;;5.23;1.53;;;22.40;43.30;;;;;;5056794;28;20448;-81
2022/06/07 12:14:27;;;;;;;7.20;2.07;;;22.50;43.50;;;;;;5056986;28;20960;-81
2022/06/07 12:16:57;;;;;;;5.60;1.90;;;22.10;39.00;;;;;;5056592;28;20452;-82
2022/06/07 12:19:27;;;;;;;8.00;1.97;;;22.50;37.60;;;;;;5055664;28;20455;-82
2022/06/07 12:21:58;;;;;;;4.87;1.77;;;22.70;37.80;;;;;;5056115;28;20473;-82
2022/06/07 12:24:29;;;;;;;5.37;2.13;;;22.60;35.50;;;;;;5057360;28;20536;-82
2022/06/07 12:26:56;;;;;;;4.57;1.97;;;22.60;35.70;;;;;;5057297;28;20486;-85
2022/06/07 12:29:25;;;;;;;5.90;1.83;;;22.40;34.10;;;;;;5057019;28;20450;-82
2022/06/07 12:31:56;;;;;;;4.80;2.00;;;22.20;34.30;;;;;;5057897;28;20480;-81
2022/06/07 12:34:37;;;;;;;4.50;1.63;;;22.00;32.60;;;;;;5056562;28;20458;-82
2022/06/07 12:37:25;;;;;;;5.50;2.10;;;21.80;36.70;;;;;;5056969;28;20624;-82
2022/06/07 12:39:56;;;;;;;4.70;1.90;;;21.30;36.50;;;;;;5056982;28;20445;-82
2022/06/07 12:42:24;;;;;;;5.80;1.80;;;21.10;36.30;;;;;;5057463;28;20517;-83
2022/06/07 12:44:53;;;;;;;5.10;2.00;;;21.00;39.80;;;;;;5057118;28;20821;-85
2022/06/07 12:47:25;;;;;;;6.10;2.40;;;20.80;44.40;;;;;;5056800;28;20511;-82
2022/06/07 12:49:52;;;;;;;5.47;2.70;;;20.60;46.20;;;;;;5056198;28;20443;-82
2022/06/07 12:52:22;;;;;;;8.60;2.97;;;20.50;49.20;;;;;;5056136;28;20489;-81
2022/06/07 12:54:51;;;;;;;5.10;2.40;;;20.30;51.30;;;;;;5056170;28;20453;-81
2022/06/07 12:57:22;;;;;;;5.57;2.63;;;20.10;53.40;;;;;;5056431;28;20454;-84
2022/06/07 12:59:54;;;;;;;8.00;2.67;;;20.30;54.30;;;;;;5056578;28;20438;-82
2022/06/07 13:02:24;;;;;;;7.87;3.17;;;21.00;52.70;;;;;;5056934;28;20480;-81
2022/06/07 13:04:54;;;;;;;5.83;3.00;;;21.30;50.00;;;;;;5055941;28;20478;-81
2022/06/07 13:07:23;;;;;;;9.20;3.77;;;21.50;51.60;;;;;;5055615;28;20839;-82
2022/06/07 13:09:55;;;;;;;5.67;2.90;;;21.80;46.40;;;;;;5056663;28;20551;-82
2022/06/07 13:12:28;;;;;;;5.13;2.60;;;21.50;43.00;;;;;;5057524;28;20529;-81
2022/06/07 13:14:55;;;;;;;10.50;3.90;;;21.30;46.50;;;;;;5056325;28;20980;-84